Time;durP1;ratioP1;P1;durP2;ratioP2;P2;SDS_P1;SDS_P2;PMS_P1;PMS_P2;Temp;Humidity;BMP_temperature;BMP_pressure;BME280_temperature;BME280_humidity;BME280_pressure;Samples;Min_cycle;Max_cycle;Signal;HPM_P1;HPM_P2
2023/01/31 00:00:55;;;;;;;31.48;14.25;;;;;;;0.27;71.12;98894.03;4932134;28;20203;-92
2023/01/31 00:03:20;;;;;;;32.38;15.10;;;;;;;0.18;70.89;98881.03;4910358;29;20027;-92
2023/01/31 00:05:46;;;;;;;26.17;13.80;;;;;;;0.30;71.13;98902.34;4893467;28;20031;-92
2023/01/31 00:08:13;;;;;;;26.65;13.38;;;;;;;0.17;71.67;98876.78;4918483;28;20026;-92
2023/01/31 00:10:38;;;;;;;22.75;12.98;;;;;;;0.44;70.83;98878.44;4921052;28;20037;-93
2023/01/31 00:13:03;;;;;;;28.13;13.77;;;;;;;0.28;70.71;98864.69;4917637;28;20027;-92
2023/01/31 00:15:29;;;;;;;24.25;13.15;;;;;;;0.14;71.47;98856.00;4911147;28;20038;-92
2023/01/31 00:17:54;;;;;;;21.13;12.77;;;;;;;0.24;71.11;98857.38;4915018;29;20063;-92
2023/01/31 00:20:20;;;;;;;24.95;14.65;;;;;;;0.28;71.30;98867.34;4913367;29;20039;-92
2023/01/31 00:22:45;;;;;;;25.17;12.00;;;;;;;0.09;71.36;98845.25;4916368;28;20094;-92
2023/01/31 00:25:11;;;;;;;27.08;13.00;;;;;;;0.26;71.29;98864.09;4913221;28;20246;-92
2023/01/31 00:27:36;;;;;;;29.20;13.57;;;;;;;0.29;70.98;98850.44;4919560;28;20026;-92
2023/01/31 00:30:02;;;;;;;20.77;12.82;;;;;;;0.18;71.53;98849.25;4919157;28;20039;-92
2023/01/31 00:32:27;;;;;;;26.83;14.25;;;;;;;0.46;70.65;98860.47;4922283;28;20027;-92
2023/01/31 00:34:53;;;;;;;30.27;12.68;;;;;;;0.54;70.01;98866.34;4914726;29;20486;-91
2023/01/31 00:37:19;;;;;;;20.25;11.80;;;;;;;0.56;69.27;98850.22;4888874;29;20031;-92
2023/01/31 00:39:45;;;;;;;21.60;11.88;;;;;;;0.56;69.17;98864.28;4889954;29;20100;-92
2023/01/31 00:42:10;;;;;;;21.20;11.63;;;;;;;0.46;69.88;98844.59;4934745;28;20052;-92
2023/01/31 00:44:35;;;;;;;24.05;11.95;;;;;;;0.53;69.50;98855.97;4905744;29;20057;-92
2023/01/31 00:47:01;;;;;;;26.02;12.25;;;;;;;0.64;69.63;98872.97;4907793;28;20030;-92
2023/01/31 00:49:26;;;;;;;23.50;11.65;;;;;;;0.75;69.12;98867.81;4925999;29;20027;-92
2023/01/31 00:51:52;;;;;;;25.90;11.80;;;;;;;0.70;69.11;98875.56;4923985;29;20035;-92
2023/01/31 00:54:17;;;;;;;25.77;14.35;;;;;;;0.64;69.49;98859.75;4910441;28;20032;-92
2023/01/31 00:56:43;;;;;;;24.85;13.18;;;;;;;0.55;70.21;98862.66;4919914;28;20103;-93
2023/01/31 00:59:09;;;;;;;29.58;13.63;;;;;;;0.70;70.13;98875.56;4914997;28;20039;-92
2023/01/31 01:01:35;;;;;;;29.75;13.23;;;;;;;0.66;70.16;98865.63;4910521;29;20062;-92
2023/01/31 01:04:00;;;;;;;26.08;12.43;;;;;;;0.74;70.30;98874.13;4906335;28;20030;-92
2023/01/31 01:06:26;;;;;;;26.83;12.25;;;;;;;0.83;69.67;98876.50;4913828;28;20065;-92
2023/01/31 01:08:52;;;;;;;23.15;12.05;;;;;;;0.73;69.65;98864.56;4934716;28;20035;-92
2023/01/31 01:11:21;;;;;;;21.23;10.90;;;;;;;0.87;69.05;98883.81;4913595;28;20046;-93
2023/01/31 01:13:47;;;;;;;24.55;10.65;;;;;;;0.91;68.92;98882.31;4915641;28;20027;-92
2023/01/31 01:16:18;;;;;;;22.00;10.73;;;;;;;0.93;67.90;98880.25;4907196;29;20071;-92
2023/01/31 01:18:46;;;;;;;22.98;11.63;;;;;;;0.82;68.35;98875.69;4931825;28;20033;-91
2023/01/31 01:21:14;;;;;;;16.58;9.50;;;;;;;1.00;68.01;98894.28;4910313;29;20059;-91
2023/01/31 01:23:42;;;;;;;18.90;9.95;;;;;;;0.85;68.54;98883.22;4947573;28;20037;-91
2023/01/31 01:26:18;;;;;;;25.50;12.13;;;;;;;0.90;69.26;98904.56;4920046;28;20030;-93
2023/01/31 01:28:44;;;;;;;22.70;11.65;;;;;;;0.79;69.96;98874.28;4910335;29;20035;-92
2023/01/31 01:31:10;;;;;;;26.15;11.43;;;;;;;0.72;70.49;98864.75;4913528;28;20035;-94
2023/01/31 01:33:36;;;;;;;24.98;11.98;;;;;;;0.64;71.12;98859.75;4912530;29;20577;-93
2023/01/31 01:36:05;;;;;;;23.73;12.02;;;;;;;0.70;70.09;98878.22;4920426;28;20111;-93
2023/01/31 01:38:35;;;;;;;25.25;10.48;;;;;;;0.90;69.51;98880.72;4913613;28;20030;-93
2023/01/31 01:41:01;;;;;;;23.80;10.43;;;;;;;1.09;69.44;98883.41;4935559;28;20030;-93
2023/01/31 01:43:51;;;;;;;16.98;9.82;;;;;;;1.25;68.48;98904.06;4909807;29;20071;-93
2023/01/31 01:46:33;;;;;;;16.65;8.52;;;;;;;1.08;67.67;98906.47;4920291;29;20490;-93
2023/01/31 01:49:10;;;;;;;9.63;5.40;;;;;;;1.06;66.83;98883.81;4937159;28;20031;-93
2023/01/31 01:51:36;;;;;;;9.10;4.97;;;;;;;1.19;67.66;98884.50;4908007;28;20460;-92
2023/01/31 01:54:04;;;;;;;6.70;3.60;;;;;;;1.36;68.81;98894.56;4921407;28;20086;-93
2023/01/31 01:56:35;;;;;;;7.95;3.75;;;;;;;1.53;68.57;98889.47;4917488;29;20521;-93
2023/01/31 01:59:04;;;;;;;7.18;3.50;;;;;;;1.63;68.85;98881.81;4936027;28;20032;-92
2023/01/31 02:01:32;;;;;;;8.90;4.30;;;;;;;1.76;68.47;98873.66;4918038;28;20477;-93
2023/01/31 02:03:58;;;;;;;8.35;4.22;;;;;;;1.82;68.75;98869.31;4914398;29;20086;-92
2023/01/31 02:06:23;;;;;;;7.97;4.00;;;;;;;1.67;69.94;98867.06;4909293;29;20071;-92
2023/01/31 02:08:49;;;;;;;7.55;4.30;;;;;;;1.63;70.02;98855.25;4907879;29;20115;-93
2023/01/31 02:11:20;;;;;;;9.68;4.47;;;;;;;1.95;68.77;98885.09;4908086;29;20031;-92
2023/01/31 02:13:46;;;;;;;10.13;4.55;;;;;;;1.89;69.20;98861.25;4954619;28;20026;-92
2023/01/31 02:16:11;;;;;;;6.45;3.67;;;;;;;1.99;69.11;98875.66;4921071;28;20201;-92
2023/01/31 02:18:37;;;;;;;8.32;4.20;;;;;;;1.96;69.01;98857.50;4940612;28;20491;-93
2023/01/31 02:21:41;;;;;;;10.65;4.15;;;;;;;1.92;70.10;98866.94;4924883;29;20051;-92
2023/01/31 02:24:35;;;;;;;8.80;4.10;;;;;;;1.92;70.87;98882.06;4926146;29;20074;-93
2023/01/31 02:27:16;;;;;;;9.85;4.10;;;;;;;1.93;71.51;98883.66;4957274;29;20035;-91
2023/01/31 02:30:06;;;;;;;7.78;3.80;;;;;;;1.76;72.02;98876.31;4955625;29;20034;-93
2023/01/31 02:33:01;;;;;;;8.07;3.72;;;;;;;1.82;70.87;98858.69;4953382;29;20042;-95
2023/01/31 02:35:32;;;;;;;6.40;3.92;;;;;;;2.03;70.88;98878.63;4922467;29;20032;-94
2023/01/31 02:38:15;;;;;;;7.80;4.00;;;;;;;1.95;70.71;98860.38;4957904;29;20642;-93
2023/01/31 02:41:19;;;;;;;6.32;4.03;;;;;;;2.01;70.94;98870.91;4935588;29;20039;-93
2023/01/31 02:47:08;;;;;;;8.05;4.18;;;;;;;2.00;70.29;98849.91;4946344;29;20457;-93
2023/01/31 02:49:38;;;;;;;8.80;4.72;;;;;;;1.93;69.79;98835.88;4926541;29;20027;-93
2023/01/31 02:52:31;;;;;;;7.85;3.50;;;;;;;2.05;67.88;98859.84;4925229;29;20035;-93
2023/01/31 02:58:02;;;;;;;6.05;3.50;;;;;;;2.15;64.02;98854.78;4953468;29;20057;-93
2023/01/31 03:00:29;;;;;;;9.07;3.28;;;;;;;2.19;64.58;98858.63;4923880;29;20027;-93
2023/01/31 03:02:55;;;;;;;5.10;2.70;;;;;;;2.23;64.36;98871.22;4937428;29;20038;-94
2023/01/31 03:05:22;;;;;;;8.85;4.20;;;;;;;1.99;63.51;98825.19;4953396;28;20083;-95
2023/01/31 03:07:58;;;;;;;7.93;3.38;;;;;;;2.36;58.39;98842.81;4954329;29;20478;-94
2023/01/31 03:10:41;;;;;;;5.30;2.75;;;;;;;2.45;57.28;98846.78;4969566;29;20035;-95
2023/01/31 03:13:20;;;;;;;6.88;3.28;;;;;;;2.58;59.77;98861.72;4953447;29;20051;-95
2023/01/31 03:19:03;;;;;;;4.95;3.15;;;;;;;2.74;57.79;98877.00;4970513;29;20059;-94
2023/01/31 03:21:37;;;;;;;6.82;3.05;;;;;;;2.56;58.10;98846.00;4972589;28;20054;-94
2023/01/31 03:24:04;;;;;;;22.70;16.40;;;;;;;2.63;59.82;98853.84;4957275;28;20107;-94
2023/01/31 03:26:34;;;;;;;5.82;3.40;;;;;;;2.71;56.87;98839.41;4957324;28;20089;-95
2023/01/31 03:29:01;;;;;;;7.47;3.78;;;;;;;2.79;56.54;98853.16;4972743;28;20057;-95
2023/01/31 03:32:07;;;;;;;7.18;3.25;;;;;;;2.97;55.54;98872.72;4955836;28;20506;-95
2023/01/31 03:34:35;;;;;;;6.57;3.25;;;;;;;2.99;56.57;98887.41;4914794;29;20040;-95
2023/01/31 03:37:26;;;;;;;8.60;3.72;;;;;;;2.80;57.87;98859.28;4914505;29;20040;-94
2023/01/31 03:40:07;;;;;;;9.88;3.95;;;;;;;2.66;58.03;98865.88;4914695;29;20172;-95
2023/01/31 03:42:40;;;;;;;7.70;3.72;;;;;;;2.89;58.62;98887.16;4929857;29;20200;-95
2023/01/31 03:45:50;;;;;;;7.05;3.60;;;;;;;2.93;56.06;98891.00;4914453;29;20043;-94
2023/01/31 03:48:17;;;;;;;5.93;3.10;;;;;;;2.80;54.59;98864.59;4877328;29;20047;-95
2023/01/31 03:50:46;;;;;;;6.97;3.22;;;;;;;2.71;53.42;98860.69;4891981;29;20064;-94
2023/01/31 03:53:23;;;;;;;7.85;3.88;;;;;;;2.94;52.00;98897.91;4847377;29;20041;-94
2023/01/31 03:55:56;;;;;;;5.90;3.55;;;;;;;2.80;52.07;98876.06;4892575;29;20040;-95
2023/01/31 03:58:25;;;;;;;8.48;3.60;;;;;;;2.76;51.50;98869.59;4862351;29;20037;-94
2023/01/31 04:00:54;;;;;;;8.25;3.97;;;;;;;2.70;53.26;98877.66;4861919;29;20029;-96
2023/01/31 04:03:42;;;;;;;7.18;3.55;;;;;;;2.97;52.46;98902.78;4876434;29;20033;-95
2023/01/31 04:06:13;;;;;;;10.15;4.20;;;;;;;2.80;51.94;98880.56;4892054;29;20100;-96
2023/01/31 04:09:08;;;;;;;7.13;4.28;;;;;;;2.76;52.05;98871.41;4939890;23;20020;-96
2023/01/31 04:11:41;;;;;;;6.32;3.83;;;;;;;2.86;53.09;98892.94;4974432;28;20051;-96
2023/01/31 04:14:07;;;;;;;9.13;4.20;;;;;;;2.91;53.50;98892.28;4971149;29;20039;-96
2023/01/31 04:16:49;;;;;;;9.27;4.07;;;;;;;2.99;53.59;98910.53;4966051;29;20039;-96
2023/01/31 04:19:31;;;;;;;8.52;4.78;;;;;;;2.89;53.67;98892.50;4968552;29;20023;-96
2023/01/31 04:22:04;;;;;;;7.68;4.18;;;;;;;2.90;53.92;98909.25;4972522;28;20050;-96
2023/01/31 04:24:53;;;;;;;12.70;3.88;;;;;;;2.78;54.10;98885.28;4956097;29;20114;-96
2023/01/31 04:27:35;;;;;;;7.82;3.90;;;;;;;2.66;54.72;98890.63;4958806;29;20043;-96
2023/01/31 04:32:44;;;;;;;7.03;4.00;;;;;;;2.85;56.73;98912.59;5010164;28;20406;-96
2023/01/31 04:46:14;;;;;;;12.60;5.30;;;;;;;2.60;58.45;98910.13;4966907;28;20098;-95
2023/01/31 04:48:40;;;;;;;13.55;5.20;;;;;;;2.67;58.14;98926.78;4926946;28;20031;-96
2023/01/31 04:51:06;;;;;;;10.13;5.07;;;;;;;2.60;58.20;98915.44;4928282;28;20027;-95
2023/01/31 04:53:33;;;;;;;9.40;5.28;;;;;;;2.54;59.06;98919.81;4930099;28;20039;-94
2023/01/31 04:56:02;;;;;;;8.70;4.47;;;;;;;2.53;58.96;98904.91;4928288;28;20027;-94
2023/01/31 04:58:33;;;;;;;12.27;4.78;;;;;;;2.42;59.24;98895.84;4946817;28;20030;-93
2023/01/31 05:00:59;;;;;;;10.43;4.38;;;;;;;2.59;58.87;98935.06;4928719;28;20035;-95
2023/01/31 05:03:24;;;;;;;9.35;4.20;;;;;;;2.38;59.55;98896.53;4944110;28;20045;-94
2023/01/31 05:05:52;;;;;;;10.15;4.15;;;;;;;2.43;58.98;98902.00;4923877;29;20441;-94
2023/01/31 05:08:18;;;;;;;10.82;5.05;;;;;;;2.56;59.30;98916.94;4938448;28;20038;-94
2023/01/31 05:10:43;;;;;;;9.77;4.45;;;;;;;2.59;59.09;98922.63;4926632;28;20031;-95
2023/01/31 05:13:14;;;;;;;12.30;5.32;;;;;;;2.71;59.26;98927.13;4923798;29;20031;-95
2023/01/31 05:15:40;;;;;;;10.25;5.50;;;;;;;2.49;60.45;98914.38;4941859;28;20110;-94
2023/01/31 05:18:05;;;;;;;9.80;5.43;;;;;;;2.57;59.98;98922.03;4925013;29;20540;-93
2023/01/31 05:20:38;;;;;;;12.93;6.22;;;;;;;2.66;59.81;98913.69;4940185;29;20031;-96
2023/01/31 05:23:06;;;;;;;9.55;5.22;;;;;;;2.68;60.78;98911.63;4921188;28;20045;-94
2023/01/31 05:25:35;;;;;;;10.80;5.20;;;;;;;2.80;59.92;98931.91;4930451;28;20129;-94
2023/01/31 05:28:00;;;;;;;12.00;5.03;;;;;;;2.88;60.54;98937.91;4935626;28;20031;-94
2023/01/31 05:30:26;;;;;;;9.55;4.88;;;;;;;2.94;59.59;98947.63;4927832;28;20485;-96
2023/01/31 05:32:51;;;;;;;15.45;6.55;;;;;;;2.79;60.56;98927.59;4931346;28;20030;-92
2023/01/31 05:35:20;;;;;;;12.05;5.75;;;;;;;2.75;59.68;98928.31;4930398;28;20062;-93
2023/01/31 05:37:46;;;;;;;8.60;5.40;;;;;;;2.85;60.02;98930.41;4948492;28;20038;-95
2023/01/31 05:40:13;;;;;;;10.73;5.63;;;;;;;2.88;59.71;98921.97;4932783;28;20081;-92
2023/01/31 05:42:38;;;;;;;9.57;5.40;;;;;;;2.97;59.90;98958.63;4932274;28;20418;-93
2023/01/31 05:45:05;;;;;;;10.32;5.65;;;;;;;2.68;61.02;98936.38;4932475;28;20026;-94
2023/01/31 05:47:30;;;;;;;9.85;5.38;;;;;;;2.67;60.75;98952.56;4948998;28;20031;-93
2023/01/31 05:49:56;;;;;;;12.10;6.03;;;;;;;2.56;61.82;98936.34;4933819;28;20466;-92
2023/01/31 05:52:24;;;;;;;13.27;6.20;;;;;;;2.56;61.76;98932.88;4932535;28;20034;-95
2023/01/31 05:54:50;;;;;;;19.98;7.07;;;;;;;2.75;61.09;98950.38;4931941;28;20020;-95
2023/01/31 05:57:18;;;;;;;13.80;6.43;;;;;;;2.69;60.74;98961.91;4933391;28;20062;-95
2023/01/31 05:59:44;;;;;;;19.55;9.20;;;;;;;2.68;61.49;98972.75;4930637;28;20059;-94
2023/01/31 06:02:12;;;;;;;14.02;6.30;;;;;;;2.51;61.57;98949.50;4929979;28;20134;-93
2023/01/31 06:04:37;;;;;;;12.00;6.20;;;;;;;2.63;61.19;98960.16;4931324;28;20035;-93
2023/01/31 06:07:03;;;;;;;10.45;5.32;;;;;;;2.47;61.83;98955.47;4946212;28;20042;-92
2023/01/31 06:09:44;;;;;;;12.52;6.43;;;;;;;2.67;61.60;98982.59;4943433;29;20019;-96
2023/01/31 06:12:11;;;;;;;12.77;5.15;;;;;;;2.62;61.45;98980.63;4956931;28;20413;-92
2023/01/31 06:14:37;;;;;;;11.20;6.43;;;;;;;2.65;62.35;98981.19;4945226;28;20027;-95
2023/01/31 06:17:03;;;;;;;11.95;6.75;;;;;;;2.53;61.79;98958.06;4931988;28;20501;-94
2023/01/31 06:19:28;;;;;;;19.35;7.72;;;;;;;2.68;62.77;98976.25;4947660;28;20082;-95
2023/01/31 06:21:55;;;;;;;12.98;6.75;;;;;;;2.88;61.40;98991.91;4949224;28;20039;-95
2023/01/31 06:24:36;;;;;;;15.80;7.05;;;;;;;2.92;61.00;99005.56;4948455;28;20023;-95
2023/01/31 06:27:02;;;;;;;12.80;6.55;;;;;;;2.95;60.85;98983.84;4948704;28;20021;-96
2023/01/31 06:29:28;;;;;;;13.15;7.10;;;;;;;2.87;60.79;98990.28;4932541;28;20118;-96
2023/01/31 06:31:53;;;;;;;12.73;6.32;;;;;;;3.06;60.52;99012.28;4930914;28;20571;-93
2023/01/31 06:34:24;;;;;;;10.57;5.93;;;;;;;3.09;60.21;98998.53;4929671;28;20037;-95
2023/01/31 06:36:50;;;;;;;17.73;6.85;;;;;;;3.13;60.20;99004.22;4932295;28;20502;-94
2023/01/31 06:39:15;;;;;;;12.90;7.68;;;;;;;3.24;59.87;99020.19;4932971;28;20035;-94
2023/01/31 06:41:41;;;;;;;16.70;8.20;;;;;;;3.23;60.49;99007.91;4948923;28;20027;-95
2023/01/31 06:44:09;;;;;;;19.15;8.25;;;;;;;3.12;60.59;99002.59;4953757;28;20119;-96
2023/01/31 06:46:35;;;;;;;16.27;7.40;;;;;;;3.27;59.45;99002.97;4955486;28;20035;-94
2023/01/31 06:49:01;;;;;;;13.90;7.38;;;;;;;3.35;59.43;99002.63;4938763;28;20049;-96
2023/01/31 06:51:29;;;;;;;18.00;8.75;;;;;;;3.33;59.40;99001.22;4949951;28;20043;-95
2023/01/31 06:54:02;;;;;;;15.90;8.30;;;;;;;3.32;59.73;99002.25;4936782;28;20053;-95
2023/01/31 06:56:28;;;;;;;21.65;7.28;;;;;;;3.44;60.07;99009.25;4932269;29;20367;-92
2023/01/31 06:58:55;;;;;;;15.90;6.47;;;;;;;3.72;58.55;99033.53;4928956;28;20034;-93
2023/01/31 07:01:23;;;;;;;30.80;15.80;;;;;;;3.74;58.51;99037.59;4932375;28;20493;-92
2023/01/31 07:03:53;;;;;;;13.25;6.47;;;;;;;3.69;58.20;99013.50;4947247;28;20023;-95
2023/01/31 07:06:21;;;;;;;15.07;7.53;;;;;;;3.80;58.18;99038.53;4949017;28;20039;-94
2023/01/31 07:08:49;;;;;;;16.80;8.13;;;;;;;3.76;58.05;99040.03;4933257;28;20058;-96
2023/01/31 07:14:01;;;;;;;15.52;7.30;;;;;;;3.81;57.97;99046.25;4956740;28;20390;-96
2023/01/31 07:16:26;;;;;;;12.30;6.90;;;;;;;3.64;58.46;99035.50;4948294;28;20105;-95
2023/01/31 07:18:52;;;;;;;13.70;7.03;;;;;;;3.58;58.73;99030.28;4951037;28;20057;-95
2023/01/31 07:21:18;;;;;;;13.15;6.85;;;;;;;3.64;58.32;99032.03;4930216;28;20035;-96
2023/01/31 07:23:53;;;;;;;13.65;7.63;;;;;;;3.71;58.15;99039.91;4944876;28;20026;-96
2023/01/31 07:26:21;;;;;;;16.23;7.10;;;;;;;3.71;57.83;99029.25;4947296;28;20034;-95
2023/01/31 07:28:46;;;;;;;13.23;7.68;;;;;;;3.58;59.55;99027.63;4927824;28;20042;-95
2023/01/31 07:31:12;;;;;;;12.70;6.40;;;;;;;3.64;58.62;99034.69;4927410;28;20070;-92
2023/01/31 07:33:41;;;;;;;12.82;6.70;;;;;;;3.42;59.14;99023.78;4928929;28;20038;-89
2023/01/31 07:36:12;;;;;;;14.50;6.40;;;;;;;3.55;58.81;99028.91;4943936;28;20478;-89
2023/01/31 07:56:30;;;;;;;16.05;7.18;;;;;;;3.64;59.48;99067.44;5797505;23;20562;-96
2023/01/31 07:58:58;;;;;;;16.30;7.07;;;;;;;3.63;59.27;99057.84;5060648;23;20051;-93
2023/01/31 08:04:37;;;;;;;14.75;7.88;;;;;;;3.59;59.34;99026.56;4959927;28;20073;-93
2023/01/31 08:07:09;;;;;;;13.15;6.78;;;;;;;3.57;58.98;99039.31;4951549;28;20093;-96
2023/01/31 08:09:48;;;;;;;16.77;6.88;;;;;;;3.71;59.62;99053.22;4950759;28;20118;-96
2023/01/31 08:12:20;;;;;;;16.27;6.22;;;;;;;3.67;59.42;99047.53;4969884;28;20038;-96
2023/01/31 08:14:46;;;;;;;14.20;7.00;;;;;;;3.69;59.48;99056.09;4948457;28;20030;-96
2023/01/31 08:17:18;;;;;;;15.77;7.00;;;;;;;3.73;59.09;99045.81;4950127;28;20126;-93
2023/01/31 08:19:44;;;;;;;13.10;7.13;;;;;;;3.74;59.84;99042.09;4979502;28;20042;-94
2023/01/31 08:22:17;;;;;;;13.77;7.18;;;;;;;3.78;58.98;99038.75;4947188;28;20421;-96
2023/01/31 08:24:43;;;;;;;16.38;7.00;;;;;;;3.87;58.93;99071.16;4929559;28;20022;-94
2023/01/31 08:27:08;;;;;;;14.18;7.53;;;;;;;3.84;59.37;99082.28;4948748;28;20033;-92
2023/01/31 08:29:34;;;;;;;11.40;6.40;;;;;;;3.57;59.64;99045.47;4931238;28;20031;-96
2023/01/31 08:32:03;;;;;;;14.10;6.70;;;;;;;3.60;60.00;99025.53;4948449;28;20039;-96
2023/01/31 08:34:52;;;;;;;11.20;6.25;;;;;;;3.80;60.18;99043.84;4948207;28;20136;-95
2023/01/31 08:37:19;;;;;;;14.80;8.13;;;;;;;4.01;59.54;99058.41;4965914;28;20520;-96
2023/01/31 08:39:47;;;;;;;16.92;7.07;;;;;;;3.83;59.65;99030.84;4948350;28;20027;-96
2023/01/31 08:42:17;;;;;;;12.43;7.13;;;;;;;4.06;59.49;99055.84;4951466;28;20035;-96
2023/01/31 08:44:53;;;;;;;14.68;6.93;;;;;;;4.11;58.74;99050.66;4974602;28;20053;-93
2023/01/31 08:47:19;;;;;;;14.27;6.90;;;;;;;4.09;58.74;99063.41;4946553;28;20049;-94
2023/01/31 08:49:44;;;;;;;15.27;6.80;;;;;;;4.03;59.33;99059.00;4945095;28;20035;-94
2023/01/31 08:52:12;;;;;;;16.90;7.88;;;;;;;4.10;59.89;99067.66;4934349;28;20053;-94
2023/01/31 08:54:38;;;;;;;11.93;6.53;;;;;;;4.24;58.98;99079.69;4945743;28;20061;-95
2023/01/31 08:57:03;;;;;;;15.25;7.50;;;;;;;4.19;59.07;99066.28;4945742;28;20039;-95
2023/01/31 08:59:29;;;;;;;18.00;7.57;;;;;;;4.31;59.04;99086.75;4943324;28;20062;-94
2023/01/31 09:01:55;;;;;;;14.57;6.88;;;;;;;4.42;58.32;99099.25;4945575;29;20039;-95
2023/01/31 09:04:24;;;;;;;13.63;7.40;;;;;;;4.30;59.13;99075.28;4941640;28;20086;-94
2023/01/31 09:07:23;;;;;;;18.02;7.65;;;;;;;4.70;58.08;99093.16;4966418;28;20038;-96
2023/01/31 09:09:51;;;;;;;12.32;6.78;;;;;;;4.68;57.25;99073.91;4970621;28;20049;-96
2023/01/31 09:12:17;;;;;;;16.08;7.30;;;;;;;4.79;57.99;99107.75;4925369;29;20031;-96
2023/01/31 09:14:42;;;;;;;11.63;7.10;;;;;;;4.60;57.37;99076.94;4941644;28;20022;-95
2023/01/31 09:17:09;;;;;;;18.30;7.72;;;;;;;4.73;56.96;99084.69;4946948;29;20037;-93
2023/01/31 09:19:35;;;;;;;12.20;7.57;;;;;;;4.57;57.60;99066.78;4957054;28;20086;-92
2023/01/31 09:22:01;;;;;;;14.80;7.82;;;;;;;4.79;57.13;99080.25;4944348;28;20031;-94
2023/01/31 09:24:29;;;;;;;15.68;8.75;;;;;;;4.70;57.39;99060.34;4945010;28;20022;-96
2023/01/31 09:27:40;;;;;;;;;;;;;;;;;;;;;
2023/01/31 09:30:07;;;;;;;10.90;6.43;;;;;;;4.37;58.38;99051.97;4933538;29;20071;-96
2023/01/31 09:32:43;;;;;;;14.32;7.22;;;;;;;4.37;58.25;99067.16;4905441;29;20035;-96
2023/01/31 09:35:08;;;;;;;12.95;7.32;;;;;;;4.35;58.51;99051.41;4897570;29;20021;-96
2023/01/31 09:37:37;;;;;;;11.60;7.05;;;;;;;4.58;57.48;99058.50;4897151;29;20044;-94
2023/01/31 09:40:21;;;;;;;14.98;7.15;;;;;;;4.45;58.02;99054.25;4887504;29;20072;-95
2023/01/31 09:43:30;;;;;;;9.25;5.97;;;;;;;4.76;57.22;99056.72;4876292;29;20052;-96
2023/01/31 09:48:43;;;;;;;11.00;6.57;;;;;;;4.64;57.14;99062.91;4950532;28;20055;-95
2023/01/31 09:51:10;;;;;;;12.35;6.82;;;;;;;4.71;57.89;99067.28;4941729;29;20038;-96
2023/01/31 09:54:02;;;;;;;12.43;6.38;;;;;;;4.70;57.44;99060.34;4937483;29;20031;-96
2023/01/31 09:56:59;;;;;;;;;;;;;;;4.89;57.42;99090.31;4907550;29;20050;-96
2023/01/31 10:00:26;;;;;;;14.82;6.93;;;;;;;4.80;56.76;99053.34;5021609;23;19941;-96
2023/01/31 10:03:17;;;;;;;14.48;6.60;;;;;;;4.71;58.29;99059.28;4990920;28;20050;-95
2023/01/31 10:05:58;;;;;;;15.35;7.45;;;;;;;4.70;57.38;99065.69;4991849;28;20045;-96
2023/01/31 10:09:03;;;;;;;11.13;7.38;;;;;;;4.60;58.58;99048.41;4957201;28;20018;-95
2023/01/31 10:14:49;;;;;;;11.55;7.03;;;;;;;4.87;56.92;99034.53;4990342;28;20041;-95
2023/01/31 10:24:11;;;;;;;13.95;7.05;;;;;;;5.21;57.05;99056.75;5014483;23;20041;-96
2023/01/31 10:26:56;;;;;;;17.00;7.75;;;;;;;5.49;56.17;99048.91;4993294;28;20097;-96
2023/01/31 10:59:58;;;;;;;13.32;6.90;;;;;;;5.13;56.75;99017.09;5095009;23;20297;-96
2023/01/31 11:05:30;;;;;;;13.60;6.85;;;;;;;5.32;56.18;99009.66;4952012;29;20096;-96
2023/01/31 11:08:00;;;;;;;13.35;7.03;;;;;;;5.29;56.40;99007.47;4921073;29;20047;-96
2023/01/31 11:10:42;;;;;;;13.90;7.78;;;;;;;5.38;57.55;99018.56;4916865;29;20038;-96
2023/01/31 11:13:29;;;;;;;14.82;7.47;;;;;;;5.51;56.86;99012.09;4938993;29;20035;-96
2023/01/31 11:16:36;;;;;;;;;;;;;;;;;;;;;
2023/01/31 11:20:07;;;;;;;;;;;;;;;;;;;;;
2023/01/31 11:22:44;;;;;;;11.40;6.55;;;;;;;5.54;56.82;99012.41;4944914;28;20058;-96
2023/01/31 11:38:36;;;;;;;15.07;7.47;;;;;;;5.90;55.14;99004.09;5014818;23;20081;-96
2023/01/31 11:41:38;;;;;;;;;;;;;;;;;;;;;
2023/01/31 11:44:18;;;;;;;13.93;8.33;;;;;;;6.12;55.07;99014.81;4976195;28;20544;-96
2023/01/31 11:47:16;;;;;;;15.07;8.35;;;;;;;6.07;55.20;99012.91;4982234;28;20035;-96
2023/01/31 11:50:01;;;;;;;;;;;;;;;;;;;;;
2023/01/31 11:52:31;;;;;;;14.15;6.25;;;;;;;5.95;55.12;98996.16;4956217;28;20118;-96
2023/01/31 11:55:55;;;;;;;13.25;7.07;;;;;;;5.86;54.54;98966.38;4967207;28;20056;-96
2023/01/31 11:59:14;;;;;;;12.63;6.88;;;;;;;5.90;53.71;98974.72;4930125;29;20070;-96
2023/01/31 12:02:46;;;;;;;12.43;7.05;;;;;;;5.80;54.49;98978.06;4920775;29;20027;-96
2023/01/31 12:05:18;;;;;;;13.32;7.70;;;;;;;5.80;54.63;98992.22;4915762;29;20047;-96
2023/01/31 12:08:55;;;;;;;;;;;;;;;;;;;;;
2023/01/31 12:18:37;;;;;;;14.90;6.65;;;;;;;5.80;58.01;99005.56;5006281;23;20062;-96
2023/01/31 12:24:20;;;;;;;;;;;;;;;;;;;;;
2023/01/31 12:32:39;;;;;;;13.65;8.27;;;;;;;6.14;57.27;99000.16;4947921;28;20048;-96
2023/01/31 12:35:35;;;;;;;8.65;6.03;;;;;;;6.38;54.89;99022.09;4936206;29;20031;-96
2023/01/31 12:38:19;;;;;;;15.50;8.32;;;;;;;6.45;55.14;99025.41;4932637;29;20039;-96
2023/01/31 12:41:25;;;;;;;36.08;21.88;;;;;;;6.56;55.84;99023.66;4953831;29;20023;-96
2023/01/31 13:11:34;;;;;;;16.10;8.65;;;;;;;6.01;56.16;99036.06;4992940;28;20077;-96
2023/01/31 13:14:04;;;;;;;13.07;6.75;;;;;;;5.59;57.45;99017.03;4964979;29;20070;-93
2023/01/31 13:16:31;;;;;;;12.43;8.05;;;;;;;5.73;59.43;99020.97;4947375;28;20035;-94
2023/01/31 13:19:14;;;;;;;17.42;8.50;;;;;;;5.85;57.62;99029.69;4950392;28;20077;-94
2023/01/31 13:22:25;;;;;;;12.68;7.22;;;;;;;5.71;57.84;99022.25;4951818;28;20047;-96
2023/01/31 13:25:11;;;;;;;17.95;7.55;;;;;;;6.03;60.56;99049.19;4951991;28;20062;-95
2023/01/31 13:31:12;;;;;;;;;;;;;;;;;;;;;
2023/01/31 13:34:15;;;;;;;12.10;7.47;;;;;;;6.04;59.92;99058.84;4989995;28;20113;-96
2023/01/31 13:36:51;;;;;;;14.93;8.82;;;;;;;5.85;61.03;99052.91;4945018;29;20134;-96
2023/01/31 13:39:32;;;;;;;14.57;7.95;;;;;;;5.94;59.64;99069.34;4896381;29;20035;-96
2023/01/31 13:42:00;;;;;;;13.60;8.40;;;;;;;5.94;59.56;99059.47;4912443;29;20032;-96
2023/01/31 13:44:27;;;;;;;15.70;8.77;;;;;;;5.97;59.48;99059.00;4899066;29;20031;-96
2023/01/31 13:46:57;;;;;;;15.48;8.25;;;;;;;5.84;59.78;99059.31;4918980;29;20031;-96
2023/01/31 13:50:04;;;;;;;14.75;8.05;;;;;;;5.90;60.04;99074.38;4904892;29;20031;-96
2023/01/31 13:52:44;;;;;;;13.73;7.30;;;;;;;5.85;60.55;99061.75;4859317;29;20533;-96
2023/01/31 13:56:08;;;;;;;15.30;8.00;;;;;;;5.75;60.78;99045.56;4856840;29;20105;-95
2023/01/31 13:58:37;;;;;;;16.15;8.05;;;;;;;5.76;61.59;99081.91;4844318;29;20033;-96
2023/01/31 14:04:20;;;;;;;14.23;7.38;;;;;;;5.59;62.13;99083.78;5005687;28;20050;-96
2023/01/31 14:10:18;;;;;;;14.15;7.20;;;;;;;5.66;61.29;99068.41;4988151;23;20085;-95
2023/01/31 14:12:44;;;;;;;11.27;6.90;;;;;;;5.50;60.65;99072.72;4960147;28;20038;-95
2023/01/31 14:15:49;;;;;;;14.82;7.95;;;;;;;5.56;61.49;99086.94;4934095;28;20037;-96
2023/01/31 14:18:37;;;;;;;14.60;7.13;;;;;;;5.59;61.04;99073.09;4980528;28;20104;-96
2023/01/31 14:21:31;;;;;;;14.20;6.45;;;;;;;5.54;62.46;99091.69;4952800;28;20038;-96
2023/01/31 14:24:55;;;;;;;13.63;7.75;;;;;;;5.56;61.51;99089.59;4946865;29;20150;-95
2023/01/31 14:27:52;;;;;;;21.08;10.35;;;;;;;5.44;61.68;99060.31;4918751;29;20039;-96
2023/01/31 14:31:08;;;;;;;14.73;7.88;;;;;;;5.51;61.14;99097.53;4893519;29;20043;-96
2023/01/31 14:33:34;;;;;;;16.00;7.57;;;;;;;5.19;61.43;99066.03;4887802;29;20108;-96
2023/01/31 14:36:26;;;;;;;16.67;7.70;;;;;;;5.48;60.99;99106.84;4861266;29;20036;-96
2023/01/31 14:47:42;;;;;;;18.25;9.55;;;;;;;4.98;63.12;99088.88;5010800;23;20054;-96
2023/01/31 14:57:10;;;;;;;14.23;8.45;;;;;;;5.31;63.43;99146.84;4974729;28;20082;-96
2023/01/31 15:00:37;;;;;;;15.70;9.50;;;;;;;5.15;62.59;99107.59;4936771;29;20409;-96
2023/01/31 15:03:43;;;;;;;16.77;9.40;;;;;;;5.28;62.35;99117.19;4861985;29;20042;-96
2023/01/31 15:09:14;;;;;;;15.77;9.70;;;;;;;5.08;63.41;99131.75;5008783;28;20046;-96
2023/01/31 15:15:44;;;;;;;161.38;77.20;;;;;;;5.14;63.87;99120.13;5008270;23;20060;-96
2023/01/31 15:18:41;;;;;;;92.60;45.97;;;;;;;5.17;62.67;99122.31;4948687;29;20095;-96
2023/01/31 15:21:15;;;;;;;16.63;9.60;;;;;;;5.42;63.81;99161.22;5108436;23;20772;-96
2023/01/31 15:24:05;;;;;;;18.67;11.50;;;;;;;5.43;62.83;99147.59;4947053;28;20031;-96
2023/01/31 15:26:47;;;;;;;;;;;;;;;;;;;;;